sensor_id;sensor_type;location;lat;lon;timestamp;temperature;humidity
22742;DHT22;11538;48.884;8.696;2023-07-20T00:01:52;22.70;99.90
22742;DHT22;11538;48.884;8.696;2023-07-20T00:04:19;22.70;99.90
22742;DHT22;11538;48.884;8.696;2023-07-20T00:06:47;22.60;99.90
22742;DHT22;11538;48.884;8.696;2023-07-20T00:09:14;22.60;99.90
22742;DHT22;11538;48.884;8.696;2023-07-20T00:11:49;22.60;99.90
22742;DHT22;11538;48.884;8.696;2023-07-20T00:14:19;22.50;99.90
22742;DHT22;11538;48.884;8.696;2023-07-20T00:16:47;22.50;99.90
22742;DHT22;11538;48.884;8.696;2023-07-20T00:19:24;22.40;99.90
22742;DHT22;11538;48.884;8.696;2023-07-20T00:21:52;22.40;99.90
22742;DHT22;11538;48.884;8.696;2023-07-20T00:24:20;22.40;99.90
22742;DHT22;11538;48.884;8.696;2023-07-20T00:26:47;22.30;99.90
22742;DHT22;11538;48.884;8.696;2023-07-20T00:29:15;22.30;99.90
22742;DHT22;11538;48.884;8.696;2023-07-20T00:31:42;22.20;99.90
22742;DHT22;11538;48.884;8.696;2023-07-20T00:34:10;22.20;99.90
22742;DHT22;11538;48.884;8.696;2023-07-20T00:36:37;22.20;99.90
22742;DHT22;11538;48.884;8.696;2023-07-20T00:39:04;22.10;99.90
22742;DHT22;11538;48.884;8.696;2023-07-20T00:41:31;22.10;99.90
22742;DHT22;11538;48.884;8.696;2023-07-20T00:43:59;22.10;99.90
22742;DHT22;11538;48.884;8.696;2023-07-20T00:46:26;22.10;99.90
22742;DHT22;11538;48.884;8.696;2023-07-20T00:48:54;22.00;99.90
22742;DHT22;11538;48.884;8.696;2023-07-20T00:51:23;22.00;99.90
22742;DHT22;11538;48.884;8.696;2023-07-20T00:53:52;22.00;99.90
22742;DHT22;11538;48.884;8.696;2023-07-20T00:56:20;22.00;99.90
22742;DHT22;11538;48.884;8.696;2023-07-20T00:58:49;21.90;99.90
22742;DHT22;11538;48.884;8.696;2023-07-20T01:01:16;21.90;99.90
22742;DHT22;11538;48.884;8.696;2023-07-20T01:03:43;21.80;99.90
22742;DHT22;11538;48.884;8.696;2023-07-20T01:09:19;21.80;99.90
22742;DHT22;11538;48.884;8.696;2023-07-20T01:12:27;21.70;99.90
22742;DHT22;11538;48.884;8.696;2023-07-20T01:15:16;21.70;99.90
22742;DHT22;11538;48.884;8.696;2023-07-20T01:17:43;21.70;99.90
22742;DHT22;11538;48.884;8.696;2023-07-20T01:20:14;21.60;99.90
22742;DHT22;11538;48.884;8.696;2023-07-20T01:31:54;21.30;99.90
22742;DHT22;11538;48.884;8.696;2023-07-20T01:34:24;21.30;99.90
22742;DHT22;11538;48.884;8.696;2023-07-20T01:36:56;21.20;99.90
22742;DHT22;11538;48.884;8.696;2023-07-20T01:39:24;21.10;99.90
22742;DHT22;11538;48.884;8.696;2023-07-20T01:41:51;21.00;99.90
22742;DHT22;11538;48.884;8.696;2023-07-20T01:44:19;20.90;99.90
22742;DHT22;11538;48.884;8.696;2023-07-20T01:46:46;20.80;99.90
22742;DHT22;11538;48.884;8.696;2023-07-20T01:49:13;20.80;99.90
22742;DHT22;11538;48.884;8.696;2023-07-20T01:51:40;20.70;99.90
22742;DHT22;11538;48.884;8.696;2023-07-20T01:54:07;20.70;99.90
22742;DHT22;11538;48.884;8.696;2023-07-20T01:56:34;20.60;99.90
22742;DHT22;11538;48.884;8.696;2023-07-20T01:59:01;20.60;99.90
22742;DHT22;11538;48.884;8.696;2023-07-20T02:01:27;20.60;99.90
22742;DHT22;11538;48.884;8.696;2023-07-20T02:03:55;20.50;99.90
22742;DHT22;11538;48.884;8.696;2023-07-20T02:06:22;20.50;99.90
22742;DHT22;11538;48.884;8.696;2023-07-20T02:08:50;20.40;99.90
22742;DHT22;11538;48.884;8.696;2023-07-20T02:11:16;20.40;99.90
22742;DHT22;11538;48.884;8.696;2023-07-20T02:13:43;20.30;99.90
22742;DHT22;11538;48.884;8.696;2023-07-20T02:16:10;20.10;99.90
22742;DHT22;11538;48.884;8.696;2023-07-20T02:18:38;20.00;99.90
22742;DHT22;11538;48.884;8.696;2023-07-20T02:21:05;20.00;99.90
22742;DHT22;11538;48.884;8.696;2023-07-20T02:23:32;19.90;99.90
22742;DHT22;11538;48.884;8.696;2023-07-20T02:25:59;19.90;99.90
22742;DHT22;11538;48.884;8.696;2023-07-20T02:28:26;19.80;99.90
22742;DHT22;11538;48.884;8.696;2023-07-20T02:30:53;19.80;99.90
22742;DHT22;11538;48.884;8.696;2023-07-20T02:33:20;19.80;99.90
22742;DHT22;11538;48.884;8.696;2023-07-20T02:35:48;19.70;99.90
22742;DHT22;11538;48.884;8.696;2023-07-20T02:38:15;19.70;99.90
22742;DHT22;11538;48.884;8.696;2023-07-20T02:40:42;19.70;99.90
22742;DHT22;11538;48.884;8.696;2023-07-20T02:43:09;19.70;99.90
22742;DHT22;11538;48.884;8.696;2023-07-20T02:45:40;19.70;99.90
22742;DHT22;11538;48.884;8.696;2023-07-20T02:48:08;19.60;99.90
22742;DHT22;11538;48.884;8.696;2023-07-20T02:50:35;19.60;99.90
22742;DHT22;11538;48.884;8.696;2023-07-20T02:53:06;19.50;99.90
22742;DHT22;11538;48.884;8.696;2023-07-20T02:55:33;19.50;99.90
22742;DHT22;11538;48.884;8.696;2023-07-20T02:58:00;19.40;99.90
22742;DHT22;11538;48.884;8.696;2023-07-20T03:00:29;19.30;99.90
22742;DHT22;11538;48.884;8.696;2023-07-20T03:02:56;19.30;99.90
22742;DHT22;11538;48.884;8.696;2023-07-20T03:05:23;19.30;99.90
22742;DHT22;11538;48.884;8.696;2023-07-20T03:07:52;19.30;99.90
22742;DHT22;11538;48.884;8.696;2023-07-20T03:10:19;19.30;99.90
22742;DHT22;11538;48.884;8.696;2023-07-20T03:12:46;19.40;99.90
22742;DHT22;11538;48.884;8.696;2023-07-20T03:15:13;19.40;99.90
22742;DHT22;11538;48.884;8.696;2023-07-20T03:17:40;19.40;99.90
22742;DHT22;11538;48.884;8.696;2023-07-20T03:20:08;19.40;99.90
22742;DHT22;11538;48.884;8.696;2023-07-20T03:22:38;19.40;99.90
22742;DHT22;11538;48.884;8.696;2023-07-20T03:25:09;19.40;99.90
22742;DHT22;11538;48.884;8.696;2023-07-20T03:27:40;19.30;99.90
22742;DHT22;11538;48.884;8.696;2023-07-20T03:30:12;19.30;99.90
22742;DHT22;11538;48.884;8.696;2023-07-20T03:32:41;19.20;99.90
22742;DHT22;11538;48.884;8.696;2023-07-20T03:35:08;19.20;99.90
22742;DHT22;11538;48.884;8.696;2023-07-20T03:37:35;19.10;99.90
22742;DHT22;11538;48.884;8.696;2023-07-20T03:40:03;19.00;99.90
22742;DHT22;11538;48.884;8.696;2023-07-20T03:42:31;19.00;99.90
22742;DHT22;11538;48.884;8.696;2023-07-20T03:44:59;19.00;99.90
22742;DHT22;11538;48.884;8.696;2023-07-20T03:47:29;19.00;99.90
22742;DHT22;11538;48.884;8.696;2023-07-20T03:49:57;19.00;99.90
22742;DHT22;11538;48.884;8.696;2023-07-20T03:52:24;18.90;99.90
22742;DHT22;11538;48.884;8.696;2023-07-20T03:54:51;18.90;99.90
22742;DHT22;11538;48.884;8.696;2023-07-20T03:57:18;18.90;99.90
22742;DHT22;11538;48.884;8.696;2023-07-20T03:59:45;18.80;99.90
22742;DHT22;11538;48.884;8.696;2023-07-20T04:02:15;18.80;99.90
22742;DHT22;11538;48.884;8.696;2023-07-20T04:04:42;18.70;99.90
22742;DHT22;11538;48.884;8.696;2023-07-20T04:07:10;18.60;99.90
22742;DHT22;11538;48.884;8.696;2023-07-20T04:09:44;18.60;99.90
22742;DHT22;11538;48.884;8.696;2023-07-20T04:12:11;18.60;99.90
22742;DHT22;11538;48.884;8.696;2023-07-20T04:14:38;18.60;99.90
22742;DHT22;11538;48.884;8.696;2023-07-20T04:17:05;18.60;99.90
22742;DHT22;11538;48.884;8.696;2023-07-20T04:19:32;18.70;99.90
22742;DHT22;11538;48.884;8.696;2023-07-20T04:21:59;18.70;99.90
22742;DHT22;11538;48.884;8.696;2023-07-20T04:24:26;18.70;99.90
22742;DHT22;11538;48.884;8.696;2023-07-20T04:26:56;18.70;99.90
22742;DHT22;11538;48.884;8.696;2023-07-20T04:29:23;18.70;99.90
22742;DHT22;11538;48.884;8.696;2023-07-20T04:31:50;18.70;99.90
22742;DHT22;11538;48.884;8.696;2023-07-20T04:34:17;18.60;99.90
22742;DHT22;11538;48.884;8.696;2023-07-20T04:36:44;18.70;99.90
22742;DHT22;11538;48.884;8.696;2023-07-20T04:39:13;18.70;99.90
22742;DHT22;11538;48.884;8.696;2023-07-20T04:41:57;18.70;99.90
22742;DHT22;11538;48.884;8.696;2023-07-20T04:44:24;18.70;99.90
22742;DHT22;11538;48.884;8.696;2023-07-20T04:46:51;18.60;99.90
22742;DHT22;11538;48.884;8.696;2023-07-20T04:49:18;18.60;99.90
22742;DHT22;11538;48.884;8.696;2023-07-20T04:51:45;18.70;99.90
22742;DHT22;11538;48.884;8.696;2023-07-20T04:54:12;18.70;99.90
22742;DHT22;11538;48.884;8.696;2023-07-20T04:56:40;18.70;99.90
22742;DHT22;11538;48.884;8.696;2023-07-20T04:59:07;18.70;99.90
22742;DHT22;11538;48.884;8.696;2023-07-20T05:01:34;18.70;99.90
22742;DHT22;11538;48.884;8.696;2023-07-20T05:04:01;18.70;99.90
22742;DHT22;11538;48.884;8.696;2023-07-20T05:06:29;18.80;99.90
22742;DHT22;11538;48.884;8.696;2023-07-20T05:08:56;18.80;99.90
22742;DHT22;11538;48.884;8.696;2023-07-20T05:11:23;18.90;99.90
22742;DHT22;11538;48.884;8.696;2023-07-20T05:13:50;18.90;99.90
22742;DHT22;11538;48.884;8.696;2023-07-20T05:16:18;19.00;99.90
22742;DHT22;11538;48.884;8.696;2023-07-20T05:18:45;19.00;99.90
22742;DHT22;11538;48.884;8.696;2023-07-20T05:21:13;19.10;99.90
22742;DHT22;11538;48.884;8.696;2023-07-20T05:23:40;19.10;99.90
22742;DHT22;11538;48.884;8.696;2023-07-20T05:26:08;19.20;99.90
22742;DHT22;11538;48.884;8.696;2023-07-20T05:28:36;19.30;99.90
22742;DHT22;11538;48.884;8.696;2023-07-20T05:31:03;19.40;99.90
22742;DHT22;11538;48.884;8.696;2023-07-20T05:33:30;19.50;99.90
22742;DHT22;11538;48.884;8.696;2023-07-20T05:35:57;19.60;99.90
22742;DHT22;11538;48.884;8.696;2023-07-20T05:38:24;19.60;99.90
22742;DHT22;11538;48.884;8.696;2023-07-20T05:40:52;19.60;99.90
22742;DHT22;11538;48.884;8.696;2023-07-20T05:43:19;19.60;99.90
22742;DHT22;11538;48.884;8.696;2023-07-20T05:45:46;19.60;99.90
22742;DHT22;11538;48.884;8.696;2023-07-20T05:48:14;19.60;99.90
22742;DHT22;11538;48.884;8.696;2023-07-20T05:50:43;19.60;99.90
22742;DHT22;11538;48.884;8.696;2023-07-20T05:53:11;19.60;99.90
22742;DHT22;11538;48.884;8.696;2023-07-20T05:55:38;19.80;99.90
22742;DHT22;11538;48.884;8.696;2023-07-20T05:58:06;19.90;99.90
22742;DHT22;11538;48.884;8.696;2023-07-20T06:00:34;20.00;99.90
22742;DHT22;11538;48.884;8.696;2023-07-20T06:03:01;20.10;99.90
22742;DHT22;11538;48.884;8.696;2023-07-20T06:05:29;20.30;99.90
22742;DHT22;11538;48.884;8.696;2023-07-20T06:07:57;20.40;99.90
22742;DHT22;11538;48.884;8.696;2023-07-20T06:10:25;20.50;99.90
22742;DHT22;11538;48.884;8.696;2023-07-20T06:12:53;20.70;99.90
22742;DHT22;11538;48.884;8.696;2023-07-20T06:15:34;20.80;99.90
22742;DHT22;11538;48.884;8.696;2023-07-20T06:18:05;20.90;99.90
22742;DHT22;11538;48.884;8.696;2023-07-20T06:20:33;21.00;99.90
22742;DHT22;11538;48.884;8.696;2023-07-20T06:23:00;21.00;99.90
22742;DHT22;11538;48.884;8.696;2023-07-20T06:25:27;21.10;99.90
22742;DHT22;11538;48.884;8.696;2023-07-20T06:27:55;21.10;99.90
22742;DHT22;11538;48.884;8.696;2023-07-20T06:30:23;21.10;99.90
22742;DHT22;11538;48.884;8.696;2023-07-20T06:32:51;21.20;99.90
22742;DHT22;11538;48.884;8.696;2023-07-20T06:35:19;21.20;99.90
22742;DHT22;11538;48.884;8.696;2023-07-20T06:37:46;21.20;99.90
22742;DHT22;11538;48.884;8.696;2023-07-20T06:40:13;21.30;99.90
22742;DHT22;11538;48.884;8.696;2023-07-20T06:42:43;21.40;99.90
22742;DHT22;11538;48.884;8.696;2023-07-20T06:45:13;21.40;99.90
22742;DHT22;11538;48.884;8.696;2023-07-20T06:47:40;21.40;99.90
22742;DHT22;11538;48.884;8.696;2023-07-20T06:50:09;21.40;99.90
22742;DHT22;11538;48.884;8.696;2023-07-20T06:52:43;21.40;99.90
22742;DHT22;11538;48.884;8.696;2023-07-20T06:55:10;21.50;99.90
22742;DHT22;11538;48.884;8.696;2023-07-20T06:57:37;21.50;99.90
22742;DHT22;11538;48.884;8.696;2023-07-20T07:00:05;21.50;99.90
22742;DHT22;11538;48.884;8.696;2023-07-20T07:02:36;21.50;99.90
22742;DHT22;11538;48.884;8.696;2023-07-20T07:05:17;21.50;99.90
22742;DHT22;11538;48.884;8.696;2023-07-20T07:07:49;21.60;99.90
22742;DHT22;11538;48.884;8.696;2023-07-20T07:10:16;21.80;99.90
22742;DHT22;11538;48.884;8.696;2023-07-20T07:12:46;21.90;99.90
22742;DHT22;11538;48.884;8.696;2023-07-20T07:15:15;22.00;99.90
22742;DHT22;11538;48.884;8.696;2023-07-20T07:17:43;22.10;99.90
22742;DHT22;11538;48.884;8.696;2023-07-20T07:20:15;22.10;99.90
22742;DHT22;11538;48.884;8.696;2023-07-20T07:22:54;22.20;99.90
22742;DHT22;11538;48.884;8.696;2023-07-20T07:25:25;22.20;99.90
22742;DHT22;11538;48.884;8.696;2023-07-20T07:28:00;22.30;99.90
22742;DHT22;11538;48.884;8.696;2023-07-20T07:30:30;22.40;99.90
22742;DHT22;11538;48.884;8.696;2023-07-20T07:33:00;22.40;99.90
22742;DHT22;11538;48.884;8.696;2023-07-20T07:35:27;22.50;99.90
22742;DHT22;11538;48.884;8.696;2023-07-20T07:37:54;22.50;99.90
22742;DHT22;11538;48.884;8.696;2023-07-20T07:40:39;22.60;99.90
22742;DHT22;11538;48.884;8.696;2023-07-20T07:43:06;22.60;99.90
22742;DHT22;11538;48.884;8.696;2023-07-20T07:45:35;22.70;99.90
22742;DHT22;11538;48.884;8.696;2023-07-20T07:48:06;22.80;99.90
22742;DHT22;11538;48.884;8.696;2023-07-20T07:50:34;22.90;99.90
22742;DHT22;11538;48.884;8.696;2023-07-20T07:53:01;23.00;99.90
22742;DHT22;11538;48.884;8.696;2023-07-20T07:55:28;23.20;99.90
22742;DHT22;11538;48.884;8.696;2023-07-20T07:57:55;23.30;99.90
22742;DHT22;11538;48.884;8.696;2023-07-20T08:00:22;23.40;99.90
22742;DHT22;11538;48.884;8.696;2023-07-20T08:02:50;23.50;99.90
22742;DHT22;11538;48.884;8.696;2023-07-20T08:05:17;23.60;99.90
22742;DHT22;11538;48.884;8.696;2023-07-20T08:07:46;23.70;99.90
22742;DHT22;11538;48.884;8.696;2023-07-20T08:10:15;23.70;99.90
22742;DHT22;11538;48.884;8.696;2023-07-20T08:12:42;23.70;99.90
22742;DHT22;11538;48.884;8.696;2023-07-20T08:15:11;23.80;99.90
22742;DHT22;11538;48.884;8.696;2023-07-20T08:17:40;23.80;99.90
22742;DHT22;11538;48.884;8.696;2023-07-20T08:20:09;23.90;99.90
22742;DHT22;11538;48.884;8.696;2023-07-20T08:22:40;24.10;99.90
22742;DHT22;11538;48.884;8.696;2023-07-20T08:25:07;24.30;99.90
22742;DHT22;11538;48.884;8.696;2023-07-20T08:27:36;24.40;99.90
22742;DHT22;11538;48.884;8.696;2023-07-20T08:30:03;24.50;99.90
22742;DHT22;11538;48.884;8.696;2023-07-20T08:32:32;24.60;99.90
22742;DHT22;11538;48.884;8.696;2023-07-20T08:34:59;24.70;99.90
22742;DHT22;11538;48.884;8.696;2023-07-20T08:37:26;24.80;99.90
22742;DHT22;11538;48.884;8.696;2023-07-20T08:39:53;25.00;99.90
22742;DHT22;11538;48.884;8.696;2023-07-20T08:42:22;25.10;99.90
22742;DHT22;11538;48.884;8.696;2023-07-20T08:44:52;25.20;99.90
22742;DHT22;11538;48.884;8.696;2023-07-20T08:47:22;25.40;99.90
22742;DHT22;11538;48.884;8.696;2023-07-20T08:49:54;25.60;99.90
22742;DHT22;11538;48.884;8.696;2023-07-20T08:52:22;25.70;99.90
22742;DHT22;11538;48.884;8.696;2023-07-20T08:54:50;25.70;99.90
22742;DHT22;11538;48.884;8.696;2023-07-20T08:57:21;25.70;99.90
22742;DHT22;11538;48.884;8.696;2023-07-20T08:59:49;25.70;99.90
22742;DHT22;11538;48.884;8.696;2023-07-20T09:02:20;25.70;99.90
22742;DHT22;11538;48.884;8.696;2023-07-20T09:04:52;25.70;99.90
22742;DHT22;11538;48.884;8.696;2023-07-20T09:07:19;25.80;99.90
22742;DHT22;11538;48.884;8.696;2023-07-20T09:09:47;25.90;99.90
22742;DHT22;11538;48.884;8.696;2023-07-20T09:12:15;26.10;99.90
22742;DHT22;11538;48.884;8.696;2023-07-20T09:14:44;26.10;99.90
22742;DHT22;11538;48.884;8.696;2023-07-20T09:17:15;26.10;99.90
22742;DHT22;11538;48.884;8.696;2023-07-20T09:19:47;26.20;99.90
22742;DHT22;11538;48.884;8.696;2023-07-20T09:22:15;26.50;99.90
22742;DHT22;11538;48.884;8.696;2023-07-20T09:24:42;26.70;99.90
22742;DHT22;11538;48.884;8.696;2023-07-20T09:27:10;26.80;99.90
22742;DHT22;11538;48.884;8.696;2023-07-20T09:29:48;27.00;99.90
22742;DHT22;11538;48.884;8.696;2023-07-20T09:32:20;27.10;99.90
22742;DHT22;11538;48.884;8.696;2023-07-20T09:34:51;27.30;99.90
22742;DHT22;11538;48.884;8.696;2023-07-20T09:37:22;27.40;99.90
22742;DHT22;11538;48.884;8.696;2023-07-20T09:39:53;27.60;99.90
22742;DHT22;11538;48.884;8.696;2023-07-20T09:42:23;27.60;99.90
22742;DHT22;11538;48.884;8.696;2023-07-20T09:44:56;27.50;99.90
22742;DHT22;11538;48.884;8.696;2023-07-20T09:47:24;27.50;99.90
22742;DHT22;11538;48.884;8.696;2023-07-20T09:49:58;27.60;99.90
22742;DHT22;11538;48.884;8.696;2023-07-20T09:52:34;27.70;99.90
22742;DHT22;11538;48.884;8.696;2023-07-20T09:55:23;27.80;99.90
22742;DHT22;11538;48.884;8.696;2023-07-20T09:57:53;27.70;99.90
22742;DHT22;11538;48.884;8.696;2023-07-20T10:00:20;27.50;99.90
22742;DHT22;11538;48.884;8.696;2023-07-20T10:02:52;27.30;99.90
22742;DHT22;11538;48.884;8.696;2023-07-20T10:05:20;27.30;99.90
22742;DHT22;11538;48.884;8.696;2023-07-20T10:07:49;27.40;99.90
22742;DHT22;11538;48.884;8.696;2023-07-20T10:10:40;27.60;99.90
22742;DHT22;11538;48.884;8.696;2023-07-20T10:13:13;27.60;99.90
22742;DHT22;11538;48.884;8.696;2023-07-20T10:15:58;27.50;99.90
22742;DHT22;11538;48.884;8.696;2023-07-20T10:21:29;27.20;99.90
22742;DHT22;11538;48.884;8.696;2023-07-20T10:23:59;27.30;99.90
22742;DHT22;11538;48.884;8.696;2023-07-20T10:26:27;27.40;99.90
22742;DHT22;11538;48.884;8.696;2023-07-20T10:28:56;27.60;99.90
22742;DHT22;11538;48.884;8.696;2023-07-20T10:31:25;27.80;99.90
22742;DHT22;11538;48.884;8.696;2023-07-20T10:33:58;28.10;99.90
22742;DHT22;11538;48.884;8.696;2023-07-20T10:36:27;28.40;99.90
22742;DHT22;11538;48.884;8.696;2023-07-20T10:38:57;28.50;99.90
22742;DHT22;11538;48.884;8.696;2023-07-20T10:41:35;28.70;99.90
22742;DHT22;11538;48.884;8.696;2023-07-20T10:44:09;28.80;99.90
22742;DHT22;11538;48.884;8.696;2023-07-20T10:46:45;28.90;99.90
22742;DHT22;11538;48.884;8.696;2023-07-20T10:49:13;29.00;99.90
22742;DHT22;11538;48.884;8.696;2023-07-20T10:51:44;29.20;99.90
22742;DHT22;11538;48.884;8.696;2023-07-20T10:56:44;29.50;99.90
22742;DHT22;11538;48.884;8.696;2023-07-20T11:01:55;29.60;99.90
22742;DHT22;11538;48.884;8.696;2023-07-20T11:07:10;29.90;99.90
22742;DHT22;11538;48.884;8.696;2023-07-20T11:09:40;30.00;99.90
22742;DHT22;11538;48.884;8.696;2023-07-20T11:12:14;30.10;99.90
22742;DHT22;11538;48.884;8.696;2023-07-20T11:14:47;30.30;99.90
22742;DHT22;11538;48.884;8.696;2023-07-20T11:17:19;30.20;99.90
22742;DHT22;11538;48.884;8.696;2023-07-20T11:19:49;30.30;99.90
22742;DHT22;11538;48.884;8.696;2023-07-20T11:22:19;30.30;99.90
22742;DHT22;11538;48.884;8.696;2023-07-20T11:24:47;30.60;99.90
22742;DHT22;11538;48.884;8.696;2023-07-20T11:27:15;30.80;99.90
22742;DHT22;11538;48.884;8.696;2023-07-20T11:29:42;30.90;99.90
22742;DHT22;11538;48.884;8.696;2023-07-20T11:32:11;31.10;99.90
22742;DHT22;11538;48.884;8.696;2023-07-20T11:34:39;31.30;99.90
22742;DHT22;11538;48.884;8.696;2023-07-20T11:37:06;31.20;99.90
22742;DHT22;11538;48.884;8.696;2023-07-20T11:39:36;31.20;99.90
22742;DHT22;11538;48.884;8.696;2023-07-20T11:42:03;31.20;99.90
22742;DHT22;11538;48.884;8.696;2023-07-20T11:44:31;31.10;99.90
22742;DHT22;11538;48.884;8.696;2023-07-20T11:47:03;31.00;99.90
22742;DHT22;11538;48.884;8.696;2023-07-20T11:49:37;31.10;99.90
22742;DHT22;11538;48.884;8.696;2023-07-20T11:52:15;31.40;99.90
22742;DHT22;11538;48.884;8.696;2023-07-20T11:54:45;31.70;99.90
22742;DHT22;11538;48.884;8.696;2023-07-20T11:57:20;31.90;99.90
22742;DHT22;11538;48.884;8.696;2023-07-20T11:59:54;32.30;99.90
22742;DHT22;11538;48.884;8.696;2023-07-20T12:02:29;32.50;99.90
22742;DHT22;11538;48.884;8.696;2023-07-20T12:04:57;32.70;99.90
22742;DHT22;11538;48.884;8.696;2023-07-20T12:07:27;32.90;99.90
22742;DHT22;11538;48.884;8.696;2023-07-20T12:12:39;33.00;99.90
22742;DHT22;11538;48.884;8.696;2023-07-20T12:15:15;33.20;99.90
22742;DHT22;11538;48.884;8.696;2023-07-20T12:17:46;33.40;99.90
22742;DHT22;11538;48.884;8.696;2023-07-20T12:20:31;33.70;99.90
22742;DHT22;11538;48.884;8.696;2023-07-20T12:23:10;33.90;99.90
22742;DHT22;11538;48.884;8.696;2023-07-20T12:25:43;34.20;99.90
22742;DHT22;11538;48.884;8.696;2023-07-20T12:28:12;34.40;99.90
22742;DHT22;11538;48.884;8.696;2023-07-20T12:30:42;34.60;99.90
22742;DHT22;11538;48.884;8.696;2023-07-20T12:33:13;34.70;99.90
22742;DHT22;11538;48.884;8.696;2023-07-20T12:35:45;34.70;99.90
22742;DHT22;11538;48.884;8.696;2023-07-20T12:38:12;34.70;99.90
22742;DHT22;11538;48.884;8.696;2023-07-20T12:40:39;34.80;99.90
22742;DHT22;11538;48.884;8.696;2023-07-20T12:43:07;34.90;99.90
22742;DHT22;11538;48.884;8.696;2023-07-20T12:45:35;35.00;99.90
22742;DHT22;11538;48.884;8.696;2023-07-20T12:48:02;35.00;99.90
22742;DHT22;11538;48.884;8.696;2023-07-20T12:50:29;35.10;99.90
22742;DHT22;11538;48.884;8.696;2023-07-20T12:52:56;35.20;99.90
22742;DHT22;11538;48.884;8.696;2023-07-20T12:55:25;35.20;99.90
22742;DHT22;11538;48.884;8.696;2023-07-20T12:58:17;35.40;99.90
22742;DHT22;11538;48.884;8.696;2023-07-20T13:00:44;35.40;99.90
22742;DHT22;11538;48.884;8.696;2023-07-20T13:03:11;35.60;99.90
22742;DHT22;11538;48.884;8.696;2023-07-20T13:05:56;35.60;99.90
22742;DHT22;11538;48.884;8.696;2023-07-20T13:08:28;35.70;99.90
22742;DHT22;11538;48.884;8.696;2023-07-20T13:10:56;35.90;99.90
22742;DHT22;11538;48.884;8.696;2023-07-20T13:13:24;35.90;99.90
22742;DHT22;11538;48.884;8.696;2023-07-20T13:15:50;36.10;99.90
22742;DHT22;11538;48.884;8.696;2023-07-20T13:18:17;36.00;99.90
22742;DHT22;11538;48.884;8.696;2023-07-20T13:20:46;36.10;99.90
22742;DHT22;11538;48.884;8.696;2023-07-20T13:23:13;36.20;99.90
22742;DHT22;11538;48.884;8.696;2023-07-20T13:25:41;36.40;99.90
22742;DHT22;11538;48.884;8.696;2023-07-20T13:28:08;36.60;99.90
22742;DHT22;11538;48.884;8.696;2023-07-20T13:30:36;36.70;99.90
22742;DHT22;11538;48.884;8.696;2023-07-20T13:33:06;36.70;99.90
22742;DHT22;11538;48.884;8.696;2023-07-20T13:35:59;36.50;99.90
22742;DHT22;11538;48.884;8.696;2023-07-20T13:38:37;36.20;99.90
22742;DHT22;11538;48.884;8.696;2023-07-20T13:41:07;36.10;99.90
22742;DHT22;11538;48.884;8.696;2023-07-20T13:43:34;36.20;99.90
22742;DHT22;11538;48.884;8.696;2023-07-20T13:46:01;36.10;99.90
22742;DHT22;11538;48.884;8.696;2023-07-20T13:48:28;36.10;99.90
22742;DHT22;11538;48.884;8.696;2023-07-20T13:50:55;36.20;99.90
22742;DHT22;11538;48.884;8.696;2023-07-20T13:53:26;36.20;99.90
22742;DHT22;11538;48.884;8.696;2023-07-20T13:55:57;36.30;99.90
22742;DHT22;11538;48.884;8.696;2023-07-20T13:58:27;36.40;99.90
22742;DHT22;11538;48.884;8.696;2023-07-20T14:00:57;36.60;99.90
22742;DHT22;11538;48.884;8.696;2023-07-20T14:03:25;36.60;99.90
22742;DHT22;11538;48.884;8.696;2023-07-20T14:05:52;36.70;99.90
22742;DHT22;11538;48.884;8.696;2023-07-20T14:08:22;36.80;99.90
22742;DHT22;11538;48.884;8.696;2023-07-20T14:10:49;36.90;99.90
22742;DHT22;11538;48.884;8.696;2023-07-20T14:13:19;36.90;99.90
22742;DHT22;11538;48.884;8.696;2023-07-20T14:15:54;37.00;99.90
22742;DHT22;11538;48.884;8.696;2023-07-20T14:18:21;36.90;99.90
22742;DHT22;11538;48.884;8.696;2023-07-20T14:20:48;36.80;99.90
22742;DHT22;11538;48.884;8.696;2023-07-20T14:23:15;36.60;99.90
22742;DHT22;11538;48.884;8.696;2023-07-20T14:25:42;36.60;99.90
22742;DHT22;11538;48.884;8.696;2023-07-20T14:28:09;36.60;99.90
22742;DHT22;11538;48.884;8.696;2023-07-20T14:30:35;36.50;99.90
22742;DHT22;11538;48.884;8.696;2023-07-20T14:33:03;36.40;99.90
22742;DHT22;11538;48.884;8.696;2023-07-20T14:35:29;36.10;99.90
22742;DHT22;11538;48.884;8.696;2023-07-20T14:37:56;35.90;99.90
22742;DHT22;11538;48.884;8.696;2023-07-20T14:40:23;35.80;99.90
22742;DHT22;11538;48.884;8.696;2023-07-20T14:42:50;35.70;99.90
22742;DHT22;11538;48.884;8.696;2023-07-20T14:45:18;35.50;99.90
22742;DHT22;11538;48.884;8.696;2023-07-20T14:47:45;35.30;99.90
22742;DHT22;11538;48.884;8.696;2023-07-20T14:50:13;35.00;99.90
22742;DHT22;11538;48.884;8.696;2023-07-20T14:52:40;34.80;99.90
22742;DHT22;11538;48.884;8.696;2023-07-20T14:55:10;34.70;99.90
22742;DHT22;11538;48.884;8.696;2023-07-20T14:57:37;34.50;99.90
22742;DHT22;11538;48.884;8.696;2023-07-20T15:00:05;34.30;99.90
22742;DHT22;11538;48.884;8.696;2023-07-20T15:02:37;34.20;99.90
22742;DHT22;11538;48.884;8.696;2023-07-20T15:05:08;34.10;99.90
22742;DHT22;11538;48.884;8.696;2023-07-20T15:07:36;33.90;99.90
22742;DHT22;11538;48.884;8.696;2023-07-20T15:10:04;33.70;99.90
22742;DHT22;11538;48.884;8.696;2023-07-20T15:12:32;33.50;99.90
22742;DHT22;11538;48.884;8.696;2023-07-20T15:15:10;33.40;99.90
22742;DHT22;11538;48.884;8.696;2023-07-20T15:17:39;33.30;99.90
22742;DHT22;11538;48.884;8.696;2023-07-20T15:20:11;33.20;99.90
22742;DHT22;11538;48.884;8.696;2023-07-20T15:22:40;33.10;99.90
22742;DHT22;11538;48.884;8.696;2023-07-20T15:25:09;33.10;99.90
22742;DHT22;11538;48.884;8.696;2023-07-20T15:27:39;33.00;99.90
22742;DHT22;11538;48.884;8.696;2023-07-20T15:30:17;32.90;99.90
22742;DHT22;11538;48.884;8.696;2023-07-20T15:32:47;32.80;99.90
22742;DHT22;11538;48.884;8.696;2023-07-20T15:35:17;32.80;99.90
22742;DHT22;11538;48.884;8.696;2023-07-20T15:37:45;32.70;99.90
22742;DHT22;11538;48.884;8.696;2023-07-20T15:40:12;32.70;99.90
22742;DHT22;11538;48.884;8.696;2023-07-20T15:42:39;32.50;99.90
22742;DHT22;11538;48.884;8.696;2023-07-20T15:45:07;32.40;99.90
22742;DHT22;11538;48.884;8.696;2023-07-20T15:47:35;32.20;99.90
22742;DHT22;11538;48.884;8.696;2023-07-20T15:50:03;31.90;99.90
22742;DHT22;11538;48.884;8.696;2023-07-20T15:52:30;31.60;99.90
22742;DHT22;11538;48.884;8.696;2023-07-20T15:54:57;31.30;99.90
22742;DHT22;11538;48.884;8.696;2023-07-20T15:57:24;31.00;99.90
22742;DHT22;11538;48.884;8.696;2023-07-20T15:59:51;30.70;99.90
22742;DHT22;11538;48.884;8.696;2023-07-20T16:02:19;30.40;99.90
22742;DHT22;11538;48.884;8.696;2023-07-20T16:04:46;30.20;99.90
22742;DHT22;11538;48.884;8.696;2023-07-20T16:07:19;30.00;99.90
22742;DHT22;11538;48.884;8.696;2023-07-20T16:09:48;29.80;99.90